首页
METAR-TAF:

METAR-TAF

机场 :

拉瓜地亞機場

纽约 / 拉瓜地亞, 紐約州, 美国

纬度: 40-46-45N, 经度: 073-52-48W, 海拔: 6米

当前天气观测

该预报发布于1小时和7分钟前的19:51 UTC
风速13节,风向西南,有时为17节阵风
温度 7°C
湿度 49%
气压 1007 hPa
能見度: 16.1公里
多云层高于5000英尺
多云层高于15000英尺

METAR: KLGA 261951Z 22013G17KT 10SM BKN050 BKN150 07/M03 A2975 RMK AO2 SLP074 T00671033

时间: 15:58 (20:58 UTC)

预报

该预报发布于23分钟前的20:35 UTC
预报有效从26日的 21点(UTC)到 27日的 24点(UTC)
风速15节,风向西,有时为22节阵风
能見度: 10公里
多云层高于4500英尺
从 26日的 2200点(UTC)
风速13节,风向西
能見度: 10公里
多云层高于4500英尺
从 27日的 0300点(UTC)
风速10节,风向西
能見度: 10公里
散云层高于4000英尺
散云层高于7000英尺
散云层高于10000英尺
从 27日的 1500点(UTC)
风速15节,风向西,有时为22节阵风
能見度: 10公里
多云层高于4000英尺

TAF: KLGA 262035Z 2621/2724 27015G22KT P6SM BKN045 FM262200 27013KT P6SM BKN045 FM270300 27010KT P6SM SCT040 SCT070 SCT100 FM271500 28015G22KT P6SM BKN040

超过4000个机场的气象观测和天气预报(METAR&TAF报告)。

可查询的气象台以黄色和红色小点在地图上表示。

将鼠标移到小点上方,可查看气象台名称。

然后点击查看天气观测和预报。

如需切换地图:点击带黑十字的绿色按钮放大地图;点击带横线的绿色按钮缩小地图;或者点击绿色箭头查看邻近地区的地图。


METAR-TAF: